Time;durP1;ratioP1;P1;durP2;ratioP2;P2;SDS_P1;SDS_P2;PMS_P1;PMS_P2;Temp;Humidity;BMP_temperature;BMP_pressure;BME280_temperature;BME280_humidity;BME280_pressure;Samples;Min_cycle;Max_cycle;Signal;HPM_P1;HPM_P2
2024/02/05 00:07:53;;;;;;;;;;;;;;;;;;;;;
2024/02/05 00:34:57;;;;;;;6.78;2.00;;;;;;;;;;4726039;30;20450;-84
2024/02/05 00:40:43;;;;;;;;;;;;;;;;;;;;;
2024/02/05 00:46:26;;;;;;;4.13;1.90;;;;;;;;;;4729822;30;20083;-83
2024/02/05 00:52:21;;;;;;;3.92;1.40;;;;;;;;;;4709641;30;20064;-84
2024/02/05 00:58:03;;;;;;;;;;;;;;;;;;;;;
2024/02/05 01:15:36;;;;;;;14.10;1.50;;;;;;;;;;4725129;30;20175;-83
2024/02/05 01:18:03;;;;;;;12.27;2.13;;;;;;;;;;4718044;30;20043;-83
2024/02/05 01:20:29;;;;;;;4.55;1.55;;;;;;;;;;4719740;30;20045;-83
2024/02/05 01:23:26;;;;;;;4.13;1.55;;;;;;;;;;4731515;30;20033;-83
2024/02/05 01:33:06;;;;;;;2.33;0.77;;;;;;;;;;4740953;30;20064;-83
2024/02/05 01:51:41;;;;;;;1.85;0.68;;;;;;;;;;4714830;30;20129;-83
2024/02/05 01:54:27;;;;;;;3.85;0.80;;;;;;;;;;4734831;30;20442;-83
2024/02/05 01:56:56;;;;;;;2.88;0.68;;;;;;;;;;4748126;30;20839;-83
2024/02/05 01:59:23;;;;;;;1.15;0.35;;;;;;;;;;4749447;30;20039;-83
2024/02/05 02:02:17;;;;;;;3.50;0.50;;;;;;;;;;4740115;30;20468;-83
2024/02/05 02:04:49;;;;;;;2.53;0.60;;;;;;;;;;4748404;30;20044;-83
2024/02/05 02:07:23;;;;;;;2.92;0.80;;;;;;;;;;4742608;30;20049;-83
2024/02/05 02:09:53;;;;;;;1.50;0.60;;;;;;;;;;4745135;30;20127;-83
2024/02/05 02:12:22;;;;;;;0.73;0.32;;;;;;;;;;4743470;30;20869;-83
2024/02/05 02:14:50;;;;;;;2.58;0.73;;;;;;;;;;4749795;30;20123;-82
2024/02/05 02:17:25;;;;;;;3.60;1.00;;;;;;;;;;4747789;30;20028;-83
2024/02/05 02:19:52;;;;;;;0.90;0.57;;;;;;;;;;4749099;30;20059;-83
2024/02/05 02:22:38;;;;;;;0.55;0.20;;;;;;;;;;4740777;30;20036;-83
2024/02/05 02:25:07;;;;;;;4.10;0.77;;;;;;;;;;4744329;30;20047;-83
2024/02/05 02:27:39;;;;;;;1.83;0.35;;;;;;;;;;4747143;30;20043;-83
2024/02/05 02:30:08;;;;;;;0.82;0.35;;;;;;;;;;4748149;30;20058;-83
2024/02/05 02:32:47;;;;;;;1.00;0.25;;;;;;;;;;4740901;30;20044;-83
2024/02/05 02:35:17;;;;;;;0.98;0.30;;;;;;;;;;4748548;30;20080;-84
2024/02/05 02:37:50;;;;;;;2.40;0.50;;;;;;;;;;4747348;30;20032;-83
2024/02/05 02:40:46;;;;;;;0.40;0.20;;;;;;;;;;4739111;30;20036;-83
2024/02/05 02:43:40;;;;;;;5.50;1.55;;;;;;;;;;4741783;30;20538;-83
2024/02/05 02:46:07;;;;;;;0.40;0.10;;;;;;;;;;4748267;30;20096;-83
2024/02/05 02:48:49;;;;;;;1.65;0.70;;;;;;;;;;4738011;30;20041;-83
2024/02/05 02:51:36;;;;;;;1.27;0.50;;;;;;;;;;4727809;30;20057;-83
2024/02/05 02:54:05;;;;;;;0.45;0.28;;;;;;;;;;4726814;30;20041;-83
2024/02/05 02:56:34;;;;;;;2.03;0.55;;;;;;;;;;4721735;30;20041;-83
2024/02/05 02:59:05;;;;;;;2.45;0.55;;;;;;;;;;4728331;30;20041;-83
2024/02/05 03:01:31;;;;;;;2.53;0.65;;;;;;;;;;4712101;30;20109;-83
2024/02/05 03:04:05;;;;;;;1.73;0.85;;;;;;;;;;4713535;30;20559;-83
2024/02/05 03:06:31;;;;;;;1.65;0.57;;;;;;;;;;4729971;30;20099;-83
2024/02/05 03:09:00;;;;;;;5.47;0.57;;;;;;;;;;4724246;30;20056;-83
2024/02/05 03:11:26;;;;;;;0.80;0.55;;;;;;;;;;4728425;30;20080;-83
2024/02/05 03:13:52;;;;;;;1.08;0.38;;;;;;;;;;4723039;30;20083;-83
2024/02/05 03:19:09;;;;;;;0.95;0.28;;;;;;;;;;4731035;30;20041;-83
2024/02/05 03:21:35;;;;;;;1.00;0.45;;;;;;;;;;4732855;30;20029;-83
2024/02/05 03:24:17;;;;;;;5.35;1.75;;;;;;;;;;4728804;30;20032;-83
2024/02/05 03:26:43;;;;;;;2.25;0.75;;;;;;;;;;4716216;30;20136;-83
2024/02/05 03:29:09;;;;;;;0.73;0.40;;;;;;;;;;4730795;30;20257;-83
2024/02/05 03:31:40;;;;;;;3.58;0.38;;;;;;;;;;4734756;30;20036;-83
2024/02/05 03:34:06;;;;;;;1.15;0.60;;;;;;;;;;4731426;30;20036;-83
2024/02/05 03:36:43;;;;;;;1.33;0.32;;;;;;;;;;4733746;30;20114;-83
2024/02/05 03:39:26;;;;;;;;;;;;;;;;;;;;;
2024/02/05 03:42:08;;;;;;;1.58;0.70;;;;;;;;;;4733784;30;20044;-84
2024/02/05 03:44:34;;;;;;;2.97;0.52;;;;;;;;;;4709257;30;20048;-83
2024/02/05 03:47:00;;;;;;;1.63;0.98;;;;;;;;;;4722039;30;20048;-82
2024/02/05 03:49:28;;;;;;;0.55;0.32;;;;;;;;;;4724296;30;20036;-83
2024/02/05 03:51:56;;;;;;;2.72;0.63;;;;;;;;;;4746801;30;20809;-82
2024/02/05 03:54:25;;;;;;;2.88;0.50;;;;;;;;;;4748061;30;20094;-82
2024/02/05 03:56:51;;;;;;;0.65;0.22;;;;;;;;;;4750176;30;20119;-82
2024/02/05 03:59:17;;;;;;;3.40;0.40;;;;;;;;;;4750050;30;20040;-82
2024/02/05 04:01:46;;;;;;;4.15;0.43;;;;;;;;;;4735090;30;20036;-82
2024/02/05 04:04:17;;;;;;;1.25;0.45;;;;;;;;;;4749221;30;20041;-83
2024/02/05 04:06:48;;;;;;;2.08;0.68;;;;;;;;;;4751614;30;20618;-83
2024/02/05 04:09:20;;;;;;;1.77;0.37;;;;;;;;;;4754311;30;20135;-82
2024/02/05 04:11:46;;;;;;;0.87;0.23;;;;;;;;;;4751456;30;20117;-83
2024/02/05 04:14:14;;;;;;;3.80;0.57;;;;;;;;;;4743428;30;20517;-83
2024/02/05 04:16:46;;;;;;;3.97;0.57;;;;;;;;;;4748775;30;20048;-83
2024/02/05 04:19:12;;;;;;;6.47;0.95;;;;;;;;;;4744934;30;20071;-82
2024/02/05 04:21:47;;;;;;;7.07;0.55;;;;;;;;;;4749799;30;20048;-83
2024/02/05 04:24:13;;;;;;;2.10;0.40;;;;;;;;;;4740518;30;20036;-82
2024/02/05 04:26:39;;;;;;;2.58;1.50;;;;;;;;;;4741093;30;20816;-82
2024/02/05 04:29:14;;;;;;;0.98;0.25;;;;;;;;;;4746399;30;20843;-83
2024/02/05 04:31:40;;;;;;;6.32;0.82;;;;;;;;;;4749688;30;20048;-83
2024/02/05 04:34:06;;;;;;;2.72;0.50;;;;;;;;;;4747560;30;20067;-82
2024/02/05 04:36:32;;;;;;;4.00;0.70;;;;;;;;;;4749459;30;20032;-82
2024/02/05 04:38:58;;;;;;;6.43;0.93;;;;;;;;;;4739604;30;20036;-82
2024/02/05 04:41:24;;;;;;;1.17;0.65;;;;;;;;;;4750304;30;20111;-83
2024/02/05 04:43:50;;;;;;;2.67;0.55;;;;;;;;;;4733742;30;20774;-82
2024/02/05 04:46:16;;;;;;;0.95;0.38;;;;;;;;;;4741756;30;20049;-83
2024/02/05 04:48:42;;;;;;;2.38;0.95;;;;;;;;;;4740034;30;20045;-82
2024/02/05 04:51:11;;;;;;;0.85;0.60;;;;;;;;;;4748529;30;20172;-83
2024/02/05 04:53:37;;;;;;;0.90;0.30;;;;;;;;;;4734370;30;20724;-83
2024/02/05 04:56:03;;;;;;;1.45;0.40;;;;;;;;;;4725769;30;20048;-82
2024/02/05 04:58:29;;;;;;;1.02;0.50;;;;;;;;;;4733950;30;20032;-83
2024/02/05 05:00:55;;;;;;;1.15;0.50;;;;;;;;;;4750528;30;20044;-83
2024/02/05 05:03:22;;;;;;;1.33;0.60;;;;;;;;;;4746713;30;20033;-83
2024/02/05 05:05:48;;;;;;;1.38;0.32;;;;;;;;;;4740499;30;20052;-82
2024/02/05 05:08:14;;;;;;;0.63;0.35;;;;;;;;;;4729678;30;20079;-82
2024/02/05 05:10:40;;;;;;;1.25;0.68;;;;;;;;;;4739660;30;20127;-82
2024/02/05 05:13:07;;;;;;;1.40;0.40;;;;;;;;;;4749898;30;20044;-83
2024/02/05 05:15:35;;;;;;;4.68;0.80;;;;;;;;;;4733119;30;20468;-83
2024/02/05 05:18:01;;;;;;;2.00;0.70;;;;;;;;;;4751293;30;20060;-83
2024/02/05 05:20:27;;;;;;;1.80;0.80;;;;;;;;;;4735760;30;20038;-83
2024/02/05 05:22:53;;;;;;;4.97;0.90;;;;;;;;;;4738841;30;20029;-83
2024/02/05 05:25:19;;;;;;;1.90;0.32;;;;;;;;;;4739621;30;20043;-83
2024/02/05 05:27:51;;;;;;;7.13;1.13;;;;;;;;;;4748715;30;20040;-83
2024/02/05 05:51:56;;;;;;;7.50;1.77;;;;;;;;;;4679959;30;20782;-83
2024/02/05 05:57:35;;;;;;;4.70;0.95;;;;;;;;;;4706583;30;20135;-83
2024/02/05 06:00:25;;;;;;;4.50;0.73;;;;;;;;;;4739647;30;20488;-83
2024/02/05 06:02:55;;;;;;;8.68;1.58;;;;;;;;;;4734463;30;20044;-83
2024/02/05 06:08:47;;;;;;;6.57;1.50;;;;;;;;;;4692683;30;20049;-83
2024/02/05 06:11:13;;;;;;;4.43;1.02;;;;;;;;;;4688026;30;20036;-83
2024/02/05 06:13:39;;;;;;;5.55;1.48;;;;;;;;;;4728692;30;20038;-83
2024/02/05 06:16:08;;;;;;;1.42;0.75;;;;;;;;;;4726020;30;20044;-82
2024/02/05 06:18:34;;;;;;;4.18;1.15;;;;;;;;;;4731971;30;20040;-83
2024/02/05 06:21:00;;;;;;;3.70;1.20;;;;;;;;;;4724561;30;20048;-82
2024/02/05 06:28:39;;;;;;;2.53;1.48;;;;;;;;;;3173211;28;20484;-81
2024/02/05 06:31:05;;;;;;;2.40;1.25;;;;;;;;;;4751138;30;20433;-81
2024/02/05 06:33:32;;;;;;;6.82;1.88;;;;;;;;;;4751328;30;20266;-81
2024/02/05 06:35:58;;;;;;;2.65;1.13;;;;;;;;;;4735122;30;20059;-82
2024/02/05 06:38:24;;;;;;;3.45;1.10;;;;;;;;;;4742090;30;20045;-84
2024/02/05 06:46:15;;;;;;;3.05;0.88;;;;;;;;;;4762091;24;20512;-84
2024/02/05 06:48:46;;;;;;;2.42;0.88;;;;;;;;;;4744737;30;20051;-84
2024/02/05 06:51:28;;;;;;;5.70;1.55;;;;;;;;;;4746332;30;20044;-84
2024/02/05 06:54:14;;;;;;;4.75;0.80;;;;;;;;;;4724944;30;20076;-84
2024/02/05 06:56:52;;;;;;;3.45;0.82;;;;;;;;;;4706193;30;20231;-84
2024/02/05 06:59:36;;;;;;;4.32;1.30;;;;;;;;;;4686296;30;20050;-84
2024/02/05 07:02:10;;;;;;;4.45;1.27;;;;;;;;;;4698482;30;20057;-84
2024/02/05 07:08:11;;;;;;;5.32;1.27;;;;;;;;;;4688859;30;20046;-84
2024/02/05 07:11:05;;;;;;;;;;;;;;;;;;;;;
2024/02/05 07:13:33;;;;;;;5.30;1.33;;;;;;;;;;4695514;30;20056;-81
2024/02/05 07:16:01;;;;;;;6.90;1.40;;;;;;;;;;4698027;30;20045;-82
2024/02/05 07:18:28;;;;;;;15.27;2.35;;;;;;;;;;4699318;30;20049;-82
2024/02/05 07:20:54;;;;;;;6.15;1.40;;;;;;;;;;4726926;30;20045;-81
2024/02/05 07:23:23;;;;;;;6.97;2.55;;;;;;;;;;4744004;30;20036;-84
2024/02/05 07:26:08;;;;;;;10.25;1.63;;;;;;;;;;4741672;30;20036;-83
2024/02/05 07:31:23;;;;;;;3.88;1.42;;;;;;;;;;4683362;30;20054;-83
2024/02/05 07:34:08;;;;;;;4.18;1.17;;;;;;;;;;4727342;30;20106;-84
2024/02/05 07:37:11;;;;;;;;;;;;;;;;;;;;;
2024/02/05 07:45:53;;;;;;;7.18;2.00;;;;;;;;;;4703753;30;20128;-83
2024/02/05 07:48:27;;;;;;;2.95;1.55;;;;;;;;;;4669718;30;20127;-84
2024/02/05 07:51:02;;;;;;;6.22;1.73;;;;;;;;;;4697654;30;20107;-85
2024/02/05 07:53:29;;;;;;;10.95;2.85;;;;;;;;;;4674562;30;20788;-83
2024/02/05 07:55:57;;;;;;;7.22;1.90;;;;;;;;;;4681895;30;20565;-83
2024/02/05 07:58:23;;;;;;;14.45;3.00;;;;;;;;;;4722774;30;20045;-83
2024/02/05 08:01:15;;;;;;;7.50;2.72;;;;;;;;;;4725399;30;20086;-84
2024/02/05 08:04:07;;;;;;;13.48;2.95;;;;;;;;;;4718390;30;20037;-84
2024/02/05 08:17:00;;;;;;;11.23;3.22;;;;;;;;;;4748961;30;20070;-84
2024/02/05 09:13:39;;;;;;;;;;;;;;;;;;;;;
2024/02/05 09:19:24;;;;;;;5.63;1.92;;;;;;;;;;4706302;30;20127;-84
2024/02/05 09:22:27;;;;;;;;;;;;;;;;;;;;;
2024/02/05 09:25:00;;;;;;;;;;;;;;;;;;4711173;30;20055;-85
2024/02/05 09:36:37;;;;;;;3.35;0.60;;;;;;;;;;4743804;30;20044;-85
2024/02/05 09:51:35;;;;;;;5.80;2.10;;;;;;;;;;4665862;30;20065;-84
2024/02/05 10:00:59;;;;;;;3.08;1.35;;;;;;;;;;4716397;30;20502;-85
2024/02/05 11:22:38;;;;;;;5.18;1.23;;;;;;;;;;4729832;30;20078;-85
2024/02/05 11:25:13;;;;;;;2.85;0.75;;;;;;;;;;4731582;30;20572;-84
2024/02/05 11:27:45;;;;;;;6.38;1.00;;;;;;;;;;4717360;30;20168;-84
2024/02/05 11:41:54;;;;;;;8.20;0.77;;;;;;;;;;4796355;24;20095;-85
2024/02/05 11:44:21;;;;;;;2.22;0.50;;;;;;;;;;4767713;24;20512;-84
2024/02/05 11:46:55;;;;;;;2.28;0.65;;;;;;;;;;4729803;30;20044;-85
2024/02/05 11:49:39;;;;;;;4.45;0.82;;;;;;;;;;4747769;30;20044;-85
2024/02/05 11:52:20;;;;;;;3.70;0.50;;;;;;;;;;4710584;30;20237;-85
2024/02/05 11:54:53;;;;;;;3.67;0.60;;;;;;;;;;4704274;30;20057;-85
2024/02/05 11:57:49;;;;;;;;;;;;;;;;;;;;;
2024/02/05 12:00:51;;;;;;;3.58;0.50;;;;;;;;;;4708012;30;20048;-85
2024/02/05 12:03:51;;;;;;;5.97;0.67;;;;;;;;;;4700404;30;20077;-85
2024/02/05 12:06:45;;;;;;;0.98;0.52;;;;;;;;;;4697547;30;20045;-85
2024/02/05 12:09:12;;;;;;;2.67;0.80;;;;;;;;;;4702926;30;20060;-82
2024/02/05 12:11:41;;;;;;;3.53;0.80;;;;;;;;;;4707266;30;20079;-83
2024/02/05 12:14:08;;;;;;;2.60;0.98;;;;;;;;;;4688331;30;20659;-84
2024/02/05 12:16:34;;;;;;;2.83;0.60;;;;;;;;;;4701530;30;20523;-83
2024/02/05 12:19:00;;;;;;;1.08;0.40;;;;;;;;;;4711545;30;20133;-85
2024/02/05 12:21:27;;;;;;;2.85;0.73;;;;;;;;;;4691537;30;20045;-83
2024/02/05 12:23:53;;;;;;;2.35;0.50;;;;;;;;;;4739765;30;20090;-84
2024/02/05 12:26:19;;;;;;;2.25;0.73;;;;;;;;;;4737392;30;20503;-84
2024/02/05 12:28:52;;;;;;;1.42;0.50;;;;;;;;;;4734418;30;20097;-83
2024/02/05 12:31:21;;;;;;;3.30;0.32;;;;;;;;;;4751998;30;20040;-83
2024/02/05 12:33:58;;;;;;;8.70;0.60;;;;;;;;;;4751925;30;20502;-83
2024/02/05 12:36:25;;;;;;;1.92;0.50;;;;;;;;;;4736739;30;20037;-82
2024/02/05 12:38:52;;;;;;;2.55;1.08;;;;;;;;;;4737875;30;20040;-86
2024/02/05 12:41:21;;;;;;;1.48;0.65;;;;;;;;;;4734545;30;20048;-84
2024/02/05 12:43:48;;;;;;;0.30;0.10;;;;;;;;;;4732420;30;20102;-83
2024/02/05 12:46:33;;;;;;;1.38;0.15;;;;;;;;;;4751296;30;20036;-86
2024/02/05 12:49:31;;;;;;;;;;;;;;;;;;;;;
2024/02/05 12:52:36;;;;;;;0.95;0.50;;;;;;;;;;4748466;30;20060;-86
2024/02/05 12:55:10;;;;;;;0.57;0.25;;;;;;;;;;4727985;30;20040;-86
2024/02/05 13:00:56;;;;;;;1.92;0.65;;;;;;;;;;4676959;30;20134;-85
2024/02/05 13:06:26;;;;;;;1.88;0.30;;;;;;;;;;4731416;30;20537;-86
2024/02/05 13:09:08;;;;;;;2.55;0.30;;;;;;;;;;4728309;30;20062;-86
2024/02/05 13:11:34;;;;;;;2.35;0.28;;;;;;;;;;4730480;30;20051;-85
2024/02/05 13:14:24;;;;;;;1.40;0.30;;;;;;;;;;4734635;30;20055;-86
2024/02/05 13:20:56;;;;;;;1.90;0.40;;;;;;;;;;4734996;30;20433;-86
2024/02/05 13:26:25;;;;;;;1.15;0.20;;;;;;;;;;4746613;30;20059;-85
2024/02/05 13:39:10;;;;;;;;;;;;;;;;;;;;;
2024/02/05 13:41:47;;;;;;;2.55;0.28;;;;;;;;;;4670357;30;20052;-85
2024/02/05 13:44:19;;;;;;;2.45;0.32;;;;;;;;;;4662403;30;20109;-88
2024/02/05 14:10:57;;;;;;;2.22;0.25;;;;;;;;;;4741184;30;20114;-83
2024/02/05 14:13:23;;;;;;;3.72;0.30;;;;;;;;;;4753642;24;20097;-82
2024/02/05 14:15:49;;;;;;;1.85;0.20;;;;;;;;;;4740710;30;20059;-85
2024/02/05 14:18:47;;;;;;;3.88;0.52;;;;;;;;;;4755085;30;20063;-86
2024/02/05 14:21:45;;;;;;;;;;;;;;;;;;;;;
2024/02/05 14:24:11;;;;;;;1.80;0.20;;;;;;;;;;4750682;30;20029;-85
2024/02/05 14:26:38;;;;;;;0.80;0.10;;;;;;;;;;4746531;30;20521;-83
2024/02/05 14:29:04;;;;;;;0.30;0.10;;;;;;;;;;4758180;30;20034;-84
2024/02/05 14:31:32;;;;;;;2.40;0.30;;;;;;;;;;4737884;30;20049;-83
2024/02/05 14:33:58;;;;;;;1.90;0.30;;;;;;;;;;4753658;30;20115;-82
2024/02/05 14:36:24;;;;;;;1.23;0.28;;;;;;;;;;4747095;30;20075;-82
2024/02/05 14:38:50;;;;;;;0.43;0.10;;;;;;;;;;4723747;30;20064;-83
2024/02/05 14:41:16;;;;;;;2.45;1.73;;;;;;;;;;4746274;30;20432;-82
2024/02/05 14:43:42;;;;;;;2.67;0.22;;;;;;;;;;4722447;30;20079;-82
2024/02/05 14:46:08;;;;;;;3.40;0.57;;;;;;;;;;4732104;30;20036;-84
2024/02/05 14:48:34;;;;;;;3.72;1.05;;;;;;;;;;4733840;30;20048;-82
2024/02/05 14:51:00;;;;;;;1.17;0.30;;;;;;;;;;4741807;30;20040;-83
2024/02/05 14:53:26;;;;;;;1.23;0.30;;;;;;;;;;4734667;30;20089;-82
2024/02/05 14:55:54;;;;;;;1.02;0.38;;;;;;;;;;4738468;30;20068;-82
2024/02/05 14:58:20;;;;;;;2.58;0.30;;;;;;;;;;4746058;30;20090;-82
2024/02/05 15:00:46;;;;;;;1.33;0.77;;;;;;;;;;4754361;30;20032;-82
2024/02/05 15:03:12;;;;;;;12.57;0.60;;;;;;;;;;4726911;30;20110;-83
2024/02/05 15:05:38;;;;;;;2.85;0.60;;;;;;;;;;4731865;30;20494;-83
2024/02/05 15:08:04;;;;;;;3.15;0.68;;;;;;;;;;4730206;30;20090;-83
2024/02/05 15:10:30;;;;;;;1.58;0.52;;;;;;;;;;4731737;30;20383;-83
2024/02/05 15:12:56;;;;;;;0.73;0.20;;;;;;;;;;4733386;30;20480;-82
2024/02/05 15:15:22;;;;;;;4.45;0.38;;;;;;;;;;4736763;30;20059;-84
2024/02/05 15:17:48;;;;;;;0.77;0.22;;;;;;;;;;4736805;30;20051;-83
2024/02/05 15:20:14;;;;;;;1.92;0.55;;;;;;;;;;4745020;30;20028;-83
2024/02/05 15:22:41;;;;;;;2.03;0.40;;;;;;;;;;4739311;30;20051;-85
2024/02/05 15:31:07;;;;;;;2.75;0.32;;;;;;;;;;1367828;24;20064;-83
2024/02/05 15:37:20;;;;;;;2.17;0.28;;;;;;;;;;4682761;30;20498;-82
2024/02/05 15:39:49;;;;;;;0.47;0.20;;;;;;;;;;4704316;30;20593;-82
2024/02/05 15:42:15;;;;;;;9.68;0.65;;;;;;;;;;4753244;30;20428;-82
2024/02/05 15:44:42;;;;;;;2.72;0.52;;;;;;;;;;4753197;30;20060;-82
2024/02/05 15:47:08;;;;;;;1.42;0.22;;;;;;;;;;4736967;30;20174;-81
2024/02/05 15:49:34;;;;;;;1.70;0.35;;;;;;;;;;4752641;30;20036;-83
2024/02/05 15:52:15;;;;;;;0.43;0.17;;;;;;;;;;4758618;24;20068;-84
2024/02/05 15:54:41;;;;;;;2.28;0.40;;;;;;;;;;4728128;30;20871;-83
2024/02/05 15:57:07;;;;;;;5.18;0.50;;;;;;;;;;4747645;30;20051;-83
2024/02/05 15:59:33;;;;;;;7.30;0.57;;;;;;;;;;4739674;30;20127;-83
2024/02/05 16:01:59;;;;;;;1.65;0.60;;;;;;;;;;4747203;30;20029;-83
2024/02/05 16:04:27;;;;;;;1.33;0.45;;;;;;;;;;4726960;30;20434;-83
2024/02/05 16:06:53;;;;;;;3.40;0.50;;;;;;;;;;4750023;30;20117;-83
2024/02/05 16:09:19;;;;;;;1.52;0.43;;;;;;;;;;4734046;30;20110;-83
2024/02/05 16:12:03;;;;;;;4.18;0.40;;;;;;;;;;4751246;30;20115;-85
2024/02/05 16:14:42;;;;;;;0.60;0.15;;;;;;;;;;4747743;30;20051;-83
2024/02/05 16:17:08;;;;;;;2.05;0.55;;;;;;;;;;4736026;30;20129;-80
2024/02/05 16:19:34;;;;;;;4.65;1.05;;;;;;;;;;4747279;30;20090;-81
2024/02/05 16:22:00;;;;;;;9.35;1.48;;;;;;;;;;4751792;30;20065;-81
2024/02/05 16:24:26;;;;;;;6.97;2.10;;;;;;;;;;4735299;30;20076;-81
2024/02/05 16:26:52;;;;;;;3.75;1.52;;;;;;;;;;4751330;30;20052;-82
2024/02/05 16:29:18;;;;;;;4.97;1.30;;;;;;;;;;4752888;30;20502;-82
2024/02/05 16:31:44;;;;;;;6.25;2.38;;;;;;;;;;4754470;30;20115;-83
2024/02/05 16:34:13;;;;;;;11.93;3.22;;;;;;;;;;4754849;30;20048;-84
2024/02/05 16:36:43;;;;;;;29.80;4.30;;;;;;;;;;4742274;30;20032;-83
2024/02/05 16:39:09;;;;;;;10.95;2.65;;;;;;;;;;4738939;30;20392;-81
2024/02/05 16:41:35;;;;;;;34.95;7.80;;;;;;;;;;4752420;30;20031;-81
2024/02/05 16:44:01;;;;;;;20.10;7.15;;;;;;;;;;4753836;30;20066;-81
2024/02/05 16:46:27;;;;;;;26.30;6.63;;;;;;;;;;4753928;30;20107;-81
2024/02/05 16:48:53;;;;;;;22.85;3.28;;;;;;;;;;4753802;30;20124;-81
2024/02/05 16:51:19;;;;;;;13.15;1.27;;;;;;;;;;4737925;30;20472;-80
2024/02/05 16:53:46;;;;;;;3.30;0.80;;;;;;;;;;4753922;30;20123;-81
2024/02/05 16:56:13;;;;;;;6.03;1.80;;;;;;;;;;4738743;30;20035;-81
2024/02/05 16:58:39;;;;;;;9.70;1.25;;;;;;;;;;4738406;30;20054;-83
2024/02/05 17:01:05;;;;;;;2.45;1.02;;;;;;;;;;4753609;30;20032;-83
2024/02/05 17:03:31;;;;;;;3.50;0.90;;;;;;;;;;4733444;30;20361;-83
2024/02/05 17:05:57;;;;;;;9.60;2.80;;;;;;;;;;4744932;30;20082;-81
2024/02/05 17:08:24;;;;;;;10.52;1.88;;;;;;;;;;4752304;30;20052;-82
2024/02/05 17:10:50;;;;;;;12.07;3.10;;;;;;;;;;4751936;30;20070;-82
2024/02/05 17:13:16;;;;;;;40.83;5.53;;;;;;;;;;4735792;30;20040;-81
2024/02/05 17:15:42;;;;;;;44.22;9.73;;;;;;;;;;4752163;30;20037;-81
2024/02/05 17:18:08;;;;;;;19.02;6.30;;;;;;;;;;4726695;30;20040;-82
2024/02/05 17:20:34;;;;;;;40.13;8.32;;;;;;;;;;4736015;30;20119;-82
2024/02/05 17:23:00;;;;;;;41.65;14.25;;;;;;;;;;4729151;30;20048;-81
2024/02/05 17:25:26;;;;;;;22.27;6.07;;;;;;;;;;4731336;30;20064;-81
2024/02/05 17:31:27;;;;;;;65.18;21.63;;;;;;;;;;4697645;30;20122;-81
2024/02/05 17:33:53;;;;;;;55.92;17.23;;;;;;;;;;4728535;30;20157;-81
2024/02/05 17:36:22;;;;;;;29.52;9.65;;;;;;;;;;4732572;30;20135;-81
2024/02/05 17:38:51;;;;;;;38.55;11.20;;;;;;;;;;4728109;30;20033;-81
2024/02/05 17:41:17;;;;;;;35.13;10.07;;;;;;;;;;4716078;30;20091;-81
2024/02/05 17:43:43;;;;;;;20.50;7.63;;;;;;;;;;4732601;30;20040;-82
2024/02/05 17:46:09;;;;;;;42.97;10.15;;;;;;;;;;4715831;30;20119;-82
2024/02/05 17:48:35;;;;;;;35.28;10.10;;;;;;;;;;4715820;30;20507;-82
2024/02/05 17:51:01;;;;;;;34.15;7.55;;;;;;;;;;4715317;30;20069;-83
2024/02/05 18:06:09;;;;;;;;;;;;;;;;;;;;;
2024/02/05 18:08:48;;;;;;;17.65;6.30;;;;;;;;;;4749481;30;20689;-84
2024/02/05 18:11:14;;;;;;;20.65;5.22;;;;;;;;;;4748666;30;20932;-83
2024/02/05 18:24:59;;;;;;;23.90;7.38;;;;;;;;;;5137250;24;20081;-83
2024/02/05 18:57:40;;;;;;;16.45;4.43;;;;;;;;;;4752334;30;20060;-84
2024/02/05 19:00:11;;;;;;;8.68;3.80;;;;;;;;;;4739208;30;20691;-85
2024/02/05 19:02:37;;;;;;;21.23;5.28;;;;;;;;;;4719200;30;20044;-84
2024/02/05 19:05:04;;;;;;;16.75;5.63;;;;;;;;;;4745658;30;20049;-83
2024/02/05 19:07:33;;;;;;;14.48;6.13;;;;;;;;;;4751282;30;20094;-85
2024/02/05 19:09:59;;;;;;;13.13;4.57;;;;;;;;;;4745063;30;20036;-83
2024/02/05 19:12:25;;;;;;;12.52;4.40;;;;;;;;;;4752551;30;20047;-83
2024/02/05 19:15:06;;;;;;;13.25;4.85;;;;;;;;;;4746182;30;20040;-84
